createdAt,value
2023-02-07T00:02:21.488Z,14.60
2023-02-07T00:04:48.328Z,13.95
2023-02-07T00:07:15.060Z,14.20
2023-02-07T00:09:41.891Z,14.15
2023-02-07T00:12:08.641Z,13.30
2023-02-07T00:14:35.463Z,14.60
2023-02-07T00:17:02.206Z,14.40
2023-02-07T00:19:32.524Z,14.65
2023-02-07T00:21:59.499Z,13.57
2023-02-07T00:24:26.384Z,14.02
2023-02-07T00:26:53.100Z,14.50
2023-02-07T00:29:19.856Z,14.20
2023-02-07T00:31:46.748Z,14.18
2023-02-07T00:34:14.192Z,14.88
2023-02-07T00:36:41.719Z,14.50
2023-02-07T00:39:13.681Z,13.77
2023-02-07T00:41:41.389Z,14.67
2023-02-07T00:44:08.759Z,14.68
2023-02-07T00:46:36.261Z,14.60
2023-02-07T00:49:03.895Z,14.70
2023-02-07T00:51:31.029Z,14.00
2023-02-07T00:53:59.080Z,14.88
2023-02-07T00:56:28.470Z,14.73
2023-02-07T00:58:55.455Z,14.48
2023-02-07T01:01:23.397Z,13.70
2023-02-07T01:03:51.193Z,15.25
2023-02-07T01:06:17.944Z,15.10
2023-02-07T01:08:44.977Z,14.40
2023-02-07T01:11:14.247Z,14.88
2023-02-07T01:13:41.474Z,14.73
2023-02-07T01:16:08.285Z,14.90
2023-02-07T01:18:35.074Z,15.80
2023-02-07T01:21:01.811Z,16.10
2023-02-07T01:23:28.589Z,16.20
2023-02-07T01:25:55.349Z,15.50
2023-02-07T01:28:22.091Z,14.70
2023-02-07T01:30:49.024Z,14.80
2023-02-07T01:33:15.801Z,14.98
2023-02-07T01:35:42.529Z,15.15
2023-02-07T01:38:09.241Z,15.15
2023-02-07T01:40:37.730Z,14.40
2023-02-07T01:43:04.548Z,14.70
2023-02-07T01:45:36.676Z,14.50
2023-02-07T01:48:11.635Z,14.60
2023-02-07T01:50:40.594Z,14.98
2023-02-07T01:53:07.795Z,15.00
2023-02-07T01:55:39.448Z,14.20
2023-02-07T01:58:07.964Z,14.95
2023-02-07T02:00:35.339Z,14.75
2023-02-07T02:05:51.851Z,13.85
2023-02-07T02:11:42.569Z,16.67
2023-02-07T02:17:49.576Z,15.57
2023-02-07T02:20:42.448Z,15.13
2023-02-07T02:23:36.597Z,15.10
2023-02-07T02:26:27.705Z,14.10
2023-02-07T02:32:11.074Z,14.48
2023-02-07T02:34:47.949Z,16.50
2023-02-07T02:37:30.443Z,14.85
2023-02-07T02:40:26.080Z,16.27
2023-02-07T02:45:35.742Z,16.45
2023-02-07T02:48:03.720Z,15.30
2023-02-07T02:50:32.586Z,15.30
2023-02-07T02:52:59.329Z,15.00
2023-02-07T02:55:49.051Z,14.25
2023-02-07T02:58:42.082Z,15.98
2023-02-07T03:01:29.141Z,16.20
2023-02-07T03:04:14.304Z,16.00
2023-02-07T03:07:20.629Z,16.60
2023-02-07T03:10:04.572Z,16.95
2023-02-07T03:12:52.916Z,16.02
2023-02-07T03:15:19.676Z,16.15
2023-02-07T03:18:05.651Z,16.98
2023-02-07T03:20:38.676Z,15.98
2023-02-07T03:23:07.431Z,14.07
2023-02-07T03:25:35.823Z,13.40
2023-02-07T03:28:04.450Z,14.68
2023-02-07T03:30:34.371Z,14.35
2023-02-07T03:36:08.514Z,14.52
2023-02-07T03:38:36.655Z,16.20
2023-02-07T03:41:11.723Z,15.90
2023-02-07T03:43:40.053Z,16.50
2023-02-07T03:46:09.697Z,15.20
2023-02-07T03:48:36.697Z,17.35
2023-02-07T03:51:03.522Z,18.17
2023-02-07T03:53:30.309Z,17.70
2023-02-07T03:55:57.104Z,16.60
2023-02-07T04:01:10.865Z,18.30
2023-02-07T04:06:24.298Z,17.45
2023-02-07T04:08:51.058Z,19.30
2023-02-07T04:11:17.780Z,19.40
2023-02-07T04:13:44.527Z,17.40
2023-02-07T04:16:11.382Z,16.48
2023-02-07T04:18:38.189Z,17.50
2023-02-07T04:21:07.381Z,17.25
2023-02-07T04:23:35.069Z,14.90
2023-02-07T04:26:02.667Z,15.88
2023-02-07T04:28:29.418Z,14.90
2023-02-07T04:30:56.359Z,16.33
2023-02-07T04:33:23.405Z,14.80
2023-02-07T04:36:02.456Z,14.65
2023-02-07T04:41:16.814Z,14.35
2023-02-07T04:46:30.229Z,16.75
2023-02-07T04:51:43.724Z,20.02
2023-02-07T04:54:11.593Z,21.23
2023-02-07T04:56:38.368Z,18.88
2023-02-07T04:59:05.129Z,19.73
2023-02-07T05:01:32.250Z,20.30
2023-02-07T05:03:59.004Z,19.80
2023-02-07T05:06:25.751Z,19.92
2023-02-07T05:08:52.508Z,19.90
2023-02-07T05:11:19.262Z,20.23
2023-02-07T05:13:46.039Z,19.55
2023-02-07T05:16:12.864Z,20.27
2023-02-07T05:18:39.693Z,20.33
2023-02-07T05:21:06.464Z,20.77
2023-02-07T05:23:33.302Z,20.83
2023-02-07T05:26:00.097Z,20.38
2023-02-07T05:28:26.844Z,20.13
2023-02-07T05:30:55.982Z,20.40
2023-02-07T05:33:22.785Z,21.00
2023-02-07T05:35:49.532Z,19.20
2023-02-07T05:38:18.289Z,20.58
2023-02-07T05:40:45.498Z,19.40
2023-02-07T05:43:13.019Z,19.23
2023-02-07T05:45:40.513Z,20.17
2023-02-07T05:48:07.525Z,19.20
2023-02-07T05:50:34.350Z,18.20
2023-02-07T05:53:01.673Z,19.67
2023-02-07T05:58:15.108Z,18.92
2023-02-07T06:03:28.544Z,19.17
2023-02-07T06:08:42.095Z,18.15
2023-02-07T06:11:08.876Z,18.60
2023-02-07T06:13:35.634Z,18.42
2023-02-07T06:16:02.444Z,19.00
2023-02-07T06:18:29.273Z,18.92
2023-02-07T06:20:55.988Z,17.20
2023-02-07T06:23:22.794Z,17.75
2023-02-07T06:25:49.551Z,19.67
2023-02-07T06:28:16.380Z,19.98
2023-02-07T06:30:43.178Z,19.97
2023-02-07T06:33:09.948Z,20.20
2023-02-07T06:38:23.529Z,20.20
2023-02-07T06:43:38.514Z,17.77
2023-02-07T06:46:05.822Z,18.13
2023-02-07T06:48:32.630Z,17.48
2023-02-07T06:50:59.414Z,17.20
2023-02-07T06:53:26.159Z,18.13
2023-02-07T06:55:53.000Z,17.90
2023-02-07T06:58:19.749Z,18.85
2023-02-07T07:00:46.884Z,19.25
2023-02-07T07:03:14.988Z,18.83
2023-02-07T07:05:42.397Z,18.65
2023-02-07T07:08:12.901Z,16.58
2023-02-07T07:10:39.684Z,16.20
2023-02-07T07:13:06.536Z,17.15
2023-02-07T07:15:33.283Z,15.97
2023-02-07T07:18:00.115Z,15.65
2023-02-07T07:20:26.873Z,16.98
2023-02-07T07:22:53.613Z,16.75
2023-02-07T07:25:20.557Z,16.80
2023-02-07T07:27:47.355Z,17.20
2023-02-07T07:30:14.705Z,16.10
2023-02-07T07:32:41.478Z,16.55
2023-02-07T07:35:08.401Z,18.42
2023-02-07T07:37:35.156Z,18.33
2023-02-07T07:42:48.590Z,15.63
2023-02-07T07:45:15.379Z,16.10
2023-02-07T07:47:42.138Z,15.95
2023-02-07T07:50:09.396Z,24.05
2023-02-07T07:52:36.402Z,23.73
2023-02-07T07:55:03.419Z,25.02
2023-02-07T07:57:30.205Z,18.75
2023-02-07T07:59:25.750Z,0
2023-02-07T07:59:57.480Z,20.50
2023-02-07T08:02:24.246Z,20.88
2023-02-07T08:04:51.643Z,19.75
2023-02-07T08:07:18.507Z,20.45
2023-02-07T08:09:45.451Z,21.00
2023-02-07T08:14:58.994Z,28.65
2023-02-07T08:20:12.732Z,26.40
2023-02-07T08:25:26.543Z,34.47
2023-02-07T08:27:53.667Z,29.52
2023-02-07T08:30:21.556Z,31.75
2023-02-07T08:32:48.316Z,28.88
2023-02-07T08:35:15.136Z,32.47
2023-02-07T08:37:41.879Z,26.90
2023-02-07T08:40:09.109Z,24.25
2023-02-07T08:42:35.874Z,25.98
2023-02-07T08:45:02.785Z,24.80
2023-02-07T08:47:29.590Z,24.38
2023-02-07T08:49:56.344Z,23.30
2023-02-07T08:52:23.420Z,25.45
2023-02-07T08:54:50.277Z,22.65
2023-02-07T08:57:17.063Z,28.25
2023-02-07T08:59:43.824Z,23.63
2023-02-07T09:02:12.280Z,23.10
2023-02-07T09:04:39.081Z,22.77
2023-02-07T09:09:52.489Z,24.52
2023-02-07T09:15:06.249Z,23.67
2023-02-07T09:17:33.107Z,21.20
2023-02-07T09:19:59.899Z,22.80
2023-02-07T09:22:26.708Z,22.10
2023-02-07T09:24:53.442Z,22.60
2023-02-07T09:27:20.164Z,21.35
2023-02-07T09:29:46.972Z,23.67
2023-02-07T09:32:13.768Z,22.42
2023-02-07T09:34:40.493Z,22.45
2023-02-07T09:37:07.284Z,21.38
2023-02-07T09:37:52.919Z,0
2023-02-07T09:39:36.744Z,21.00
2023-02-07T09:42:30.985Z,21.60
2023-02-07T09:45:00.832Z,20.90
2023-02-07T09:47:27.851Z,19.88
2023-02-07T09:50:14.824Z,21.30
2023-02-07T09:55:49.254Z,20.70
2023-02-07T09:58:27.758Z,27.98
2023-02-07T10:01:03.801Z,21.90
2023-02-07T10:03:33.985Z,21.00
2023-02-07T10:06:17.719Z,21.00
2023-02-07T10:08:49.824Z,20.65
2023-02-07T10:11:34.971Z,19.53
2023-02-07T10:14:14.057Z,20.50
2023-02-07T10:16:49.875Z,19.90
2023-02-07T10:19:23.741Z,20.50
2023-02-07T10:21:56.768Z,18.92
2023-02-07T10:24:53.004Z,20.63
2023-02-07T10:27:32.070Z,21.90
2023-02-07T10:30:01.904Z,19.80
2023-02-07T10:32:33.268Z,18.25
2023-02-07T10:35:07.875Z,17.00
2023-02-07T10:37:38.393Z,17.58
2023-02-07T10:40:14.535Z,17.20
2023-02-07T10:42:43.745Z,17.50
2023-02-07T10:45:14.070Z,17.42
2023-02-07T10:47:41.616Z,15.77
2023-02-07T10:50:29.615Z,15.70
2023-02-07T10:52:58.789Z,15.27
2023-02-07T10:55:55.372Z,14.43
2023-02-07T10:58:25.669Z,15.60
2023-02-07T11:00:54.922Z,14.55
2023-02-07T11:01:41.717Z,0
2023-02-07T11:03:25.859Z,14.20
2023-02-07T11:08:42.432Z,13.67
2023-02-07T11:11:30.745Z,12.18
2023-02-07T11:14:03.930Z,12.75
2023-02-07T11:19:22.089Z,12.95
2023-02-07T11:24:37.806Z,13.48
2023-02-07T11:27:16.227Z,12.85
2023-02-07T11:30:03.949Z,12.90
2023-02-07T11:32:31.296Z,13.80
2023-02-07T11:33:30.572Z,0
2023-02-07T11:34:59.858Z,15.30
2023-02-07T11:37:38.196Z,13.18
2023-02-07T11:40:22.800Z,14.40
2023-02-07T11:42:58.481Z,14.93
2023-02-07T11:45:26.001Z,15.00
2023-02-07T11:47:56.583Z,15.30
2023-02-07T11:50:40.680Z,15.83
2023-02-07T11:53:17.500Z,15.30
2023-02-07T11:58:39.672Z,12.70
2023-02-07T12:01:07.898Z,12.23
2023-02-07T12:03:49.264Z,12.23
2023-02-07T12:12:36.608Z,12.75
2023-02-07T12:15:36.625Z,12.85
2023-02-07T12:18:14.777Z,12.80
2023-02-07T12:24:02.906Z,14.35
2023-02-07T12:26:47.658Z,14.60
2023-02-07T12:29:33.440Z,14.38
2023-02-07T12:35:55.496Z,14.13
2023-02-07T12:38:34.763Z,12.90
2023-02-07T12:44:19.557Z,12.25
2023-02-07T12:46:55.192Z,10.77
2023-02-07T12:50:04.013Z,10.45
2023-02-07T12:55:55.624Z,11.82
2023-02-07T12:58:40.495Z,13.45
2023-02-07T13:01:38.430Z,12.05
2023-02-07T13:04:31.327Z,12.90
2023-02-07T13:05:44.851Z,0
2023-02-07T13:07:24.055Z,12.98
2023-02-07T13:10:27.080Z,13.13
2023-02-07T13:13:03.691Z,13.63
2023-02-07T13:15:36.726Z,14.10
2023-02-07T13:18:18.710Z,14.10
2023-02-07T13:21:00.844Z,14.23
2023-02-07T13:23:36.954Z,13.40
2023-02-07T13:26:20.670Z,13.25
2023-02-07T13:32:05.210Z,13.07
2023-02-07T13:34:56.123Z,13.50
2023-02-07T13:40:29.756Z,13.65
2023-02-07T13:43:08.696Z,14.40
2023-02-07T13:46:03.252Z,15.40
2023-02-07T13:48:43.880Z,13.20
2023-02-07T13:51:17.421Z,13.18
2023-02-07T13:54:21.485Z,13.18
2023-02-07T14:00:12.756Z,13.30
2023-02-07T14:02:42.672Z,13.10
2023-02-07T14:05:17.292Z,13.10
2023-02-07T14:08:03.340Z,13.10
2023-02-07T14:13:35.978Z,12.43
2023-02-07T14:16:33.132Z,12.85
2023-02-07T14:18:59.887Z,12.30
2023-02-07T14:21:37.811Z,12.65
2023-02-07T14:24:18.595Z,14.77
2023-02-07T14:29:34.917Z,13.00
2023-02-07T14:32:01.814Z,13.63
2023-02-07T14:34:31.074Z,12.90
2023-02-07T14:36:57.928Z,12.77
2023-02-07T14:39:31.449Z,11.40
2023-02-07T14:42:10.852Z,13.55
2023-02-07T14:44:41.337Z,12.73
2023-02-07T14:47:16.346Z,12.50
2023-02-07T14:49:52.414Z,11.47
2023-02-07T14:52:30.936Z,11.27
2023-02-07T14:55:04.734Z,11.25
2023-02-07T15:00:29.815Z,10.30
2023-02-07T15:02:59.596Z,10.70
2023-02-07T15:05:30.635Z,10.23
2023-02-07T15:08:03.515Z,9.48
2023-02-07T15:10:33.577Z,10.07
2023-02-07T15:13:02.357Z,9.15
2023-02-07T15:16:01.805Z,9.98
2023-02-07T15:18:32.684Z,9.70
2023-02-07T15:21:00.516Z,9.80
2023-02-07T15:23:30.652Z,9.43
2023-02-07T15:26:04.599Z,9.70
2023-02-07T15:31:19.662Z,12.77
2023-02-07T15:36:46.125Z,10.95
2023-02-07T15:39:19.274Z,10.43
2023-02-07T15:41:47.744Z,9.88
2023-02-07T15:47:28.198Z,10.35
2023-02-07T15:50:23.168Z,9.70
2023-02-07T15:52:53.629Z,8.85
2023-02-07T15:55:37.317Z,9.00
2023-02-07T15:58:05.791Z,9.25
2023-02-07T16:00:38.932Z,8.82
2023-02-07T16:03:17.538Z,9.05
2023-02-07T16:05:44.702Z,9.03
2023-02-07T16:08:32.907Z,9.20
2023-02-07T16:11:17.919Z,8.40
2023-02-07T16:13:49.863Z,9.00
2023-02-07T16:16:25.928Z,8.70
2023-02-07T16:19:03.527Z,9.00
2023-02-07T16:24:21.824Z,8.90
2023-02-07T16:29:36.999Z,8.60
2023-02-07T16:32:03.870Z,9.05
2023-02-07T16:34:30.700Z,9.00
2023-02-07T16:36:57.429Z,8.82
2023-02-07T16:39:24.231Z,8.32
2023-02-07T16:41:55.873Z,8.45
2023-02-07T16:44:25.272Z,8.50
2023-02-07T16:49:40.353Z,8.52
2023-02-07T16:52:07.098Z,8.85
2023-02-07T16:54:33.828Z,7.70
2023-02-07T16:57:03.699Z,7.50
2023-02-07T17:02:17.435Z,7.50
2023-02-07T17:04:44.198Z,7.95
2023-02-07T17:07:12.011Z,8.80
2023-02-07T17:09:38.788Z,10.57
2023-02-07T17:12:05.707Z,8.17
2023-02-07T17:14:32.460Z,7.28
2023-02-07T17:17:02.151Z,7.50
2023-02-07T17:19:28.901Z,6.90
2023-02-07T17:21:55.747Z,7.72
2023-02-07T17:24:22.539Z,7.82
2023-02-07T17:26:52.743Z,7.65
2023-02-07T17:29:19.504Z,7.90
2023-02-07T17:31:47.059Z,7.25
2023-02-07T17:34:13.836Z,7.70
2023-02-07T17:36:45.794Z,7.55
2023-02-07T17:39:17.837Z,8.10
2023-02-07T17:44:33.033Z,7.30
2023-02-07T17:47:00.844Z,6.90
2023-02-07T17:49:27.584Z,7.20
2023-02-07T17:51:54.310Z,6.90
2023-02-07T17:54:21.185Z,7.03
2023-02-07T17:56:47.936Z,7.00
2023-02-07T17:59:23.163Z,7.30
2023-02-07T18:04:37.058Z,9.17
2023-02-07T18:07:04.062Z,9.77
2023-02-07T18:09:30.843Z,13.93
2023-02-07T18:11:57.705Z,16.70
2023-02-07T18:14:24.446Z,11.15
2023-02-07T18:16:51.222Z,9.80
2023-02-07T18:19:18.604Z,11.70
2023-02-07T18:21:45.505Z,12.30
2023-02-07T18:24:12.372Z,11.30
2023-02-07T18:26:39.109Z,10.48
2023-02-07T18:29:05.910Z,9.55
2023-02-07T18:31:32.714Z,10.60
2023-02-07T18:33:59.555Z,10.67
2023-02-07T18:36:26.363Z,8.27
2023-02-07T18:41:22.783Z,8.90
2023-02-07T18:43:49.665Z,9.05
2023-02-07T18:49:05.586Z,10.70
2023-02-07T18:54:19.875Z,20.15
2023-02-07T18:59:34.139Z,12.68
2023-02-07T19:04:48.261Z,12.50
2023-02-07T19:10:02.353Z,14.90
2023-02-07T19:12:29.120Z,15.65
2023-02-07T19:14:55.847Z,14.40
2023-02-07T19:17:24.873Z,15.30
2023-02-07T19:19:51.951Z,15.90
2023-02-07T19:22:30.054Z,12.80
2023-02-07T19:25:01.770Z,13.65
2023-02-07T19:27:28.533Z,13.75
2023-02-07T19:29:55.269Z,16.40
2023-02-07T19:32:22.097Z,23.27
2023-02-07T19:34:49.991Z,18.10
2023-02-07T19:37:16.820Z,12.95
2023-02-07T19:39:43.651Z,15.82
2023-02-07T19:44:57.013Z,13.38
2023-02-07T19:50:10.521Z,14.00
2023-02-07T19:52:37.277Z,14.88
2023-02-07T19:55:04.143Z,16.50
2023-02-07T19:57:31.885Z,15.65
2023-02-07T19:59:58.762Z,13.30
2023-02-07T20:02:25.519Z,12.40
2023-02-07T20:04:52.292Z,12.82
2023-02-07T20:07:19.072Z,12.53
2023-02-07T20:09:45.880Z,12.75
2023-02-07T20:12:12.662Z,13.73
2023-02-07T20:14:39.587Z,13.65
2023-02-07T20:17:06.534Z,12.80
2023-02-07T20:19:36.684Z,12.50
2023-02-07T20:22:03.755Z,13.10
2023-02-07T20:26:57.323Z,13.60
2023-02-07T20:29:24.130Z,13.90
2023-02-07T20:31:50.959Z,12.93
2023-02-07T20:34:17.810Z,12.50
2023-02-07T20:36:44.615Z,13.00
2023-02-07T20:42:01.485Z,12.70
2023-02-07T20:44:28.680Z,13.10
2023-02-07T20:46:57.485Z,13.50
2023-02-07T20:49:30.329Z,12.50
2023-02-07T20:54:45.496Z,18.17
2023-02-07T20:59:38.895Z,13.23
2023-02-07T21:02:05.684Z,13.60
2023-02-07T21:04:32.464Z,14.50
2023-02-07T21:06:59.285Z,14.43
2023-02-07T21:09:26.233Z,15.48
2023-02-07T21:11:53.830Z,15.10
2023-02-07T21:14:26.522Z,15.70
2023-02-07T21:16:54.567Z,14.85
2023-02-07T21:19:22.702Z,14.63
2023-02-07T21:21:49.430Z,14.27
2023-02-07T21:24:16.656Z,14.50
2023-02-07T21:26:44.160Z,14.10
2023-02-07T21:29:13.331Z,14.27
2023-02-07T21:31:40.175Z,14.70
2023-02-07T21:34:07.518Z,14.60
2023-02-07T21:36:36.504Z,17.55
2023-02-07T21:39:04.319Z,15.77
2023-02-07T21:41:31.538Z,15.80
2023-02-07T21:43:59.216Z,15.20
2023-02-07T21:46:29.033Z,15.98
2023-02-07T21:51:50.188Z,16.00
2023-02-07T21:54:17.272Z,15.60
2023-02-07T21:56:45.134Z,15.40
2023-02-07T21:59:15.930Z,15.65
2023-02-07T22:01:43.742Z,21.50
2023-02-07T22:04:12.880Z,18.67
2023-02-07T22:06:41.365Z,16.65
2023-02-07T22:11:57.822Z,16.00
2023-02-07T22:16:54.657Z,16.75
2023-02-07T22:19:21.998Z,16.08
2023-02-07T22:24:19.376Z,16.42
2023-02-07T22:26:46.269Z,15.77
2023-02-07T22:32:00.502Z,15.60
2023-02-07T22:37:14.003Z,14.82
2023-02-07T22:39:40.868Z,15.68
2023-02-07T22:42:07.638Z,15.70
2023-02-07T22:44:34.464Z,15.60
2023-02-07T22:47:01.256Z,16.15
2023-02-07T22:49:28.038Z,15.40
2023-02-07T22:51:54.765Z,15.52
2023-02-07T22:54:21.525Z,15.63
2023-02-07T22:56:48.275Z,15.27
2023-02-07T22:59:15.045Z,15.38
2023-02-07T23:01:42.692Z,15.38
2023-02-07T23:04:14.372Z,16.10
2023-02-07T23:06:41.252Z,16.90
2023-02-07T23:09:08.037Z,16.40
2023-02-07T23:11:34.901Z,16.77
2023-02-07T23:14:01.975Z,15.80
2023-02-07T23:16:30.457Z,15.88
2023-02-07T23:19:01.901Z,15.70
2023-02-07T23:21:28.712Z,15.60
2023-02-07T23:23:56.686Z,16.10
2023-02-07T23:26:24.769Z,15.50
2023-02-07T23:28:52.540Z,15.25
2023-02-07T23:31:21.478Z,15.88
2023-02-07T23:33:48.735Z,15.65
2023-02-07T23:36:17.686Z,15.50
2023-02-07T23:38:45.247Z,15.68
2023-02-07T23:41:12.808Z,15.83
2023-02-07T23:43:39.625Z,14.40
2023-02-07T23:46:07.454Z,13.85
2023-02-07T23:48:37.661Z,13.10
2023-02-07T23:53:52.933Z,13.30
2023-02-07T23:59:11.347Z,12.70
